CheckWX is a tool to help pilots better visualize weather data.  It is not intended as a substitute for an official pre-flight weather briefing.

12:11:04 UTC

KPHL TAF
Philadelphia International Airport
Philadelphia, Pennsylvania, USA
KPHL 261124Z 2612/2718 31006KT P6SM FEW080 SCT250 FM261600 25008KT P6SM FEW050 FM270100 27004KT P6SM SCT050 FM270800 33006KT P6SM SKC

Jun-26@
12:00 UTC

Jun-26 @ 12:00 UTC

Jun-26@
16:00 UTC

Jun-26 @ 16:00 UTC

KPHL 261124Z 2612/2718 31006KT P6SM FEW080 SCT250
Wind
  • 310° at 6 KTS
Cloud Levels
  • Few at 8,000' AGL
  • Scattered at 25,000' AGL

Jun-26@
16:00 UTC

Jun-26 @ 16:00 UTC

Jun-27@
01:00 UTC

Jun-27 @ 01:00 UTC

FM261600 25008KT P6SM FEW050

From

From Standard forecast or significant change

Wind
  • 250° at 8 KTS
Cloud Levels
  • Few at 5,000' AGL

Jun-27@
01:00 UTC

Jun-27 @ 01:00 UTC

Jun-27@
08:00 UTC

Jun-27 @ 08:00 UTC

FM270100 27004KT P6SM SCT050

From

From Standard forecast or significant change

Wind
  • 270° at 4 KTS
Cloud Levels
  • Scattered at 5,000' AGL

Jun-27@
08:00 UTC

Jun-27 @ 08:00 UTC

Jun-27@
18:00 UTC

Jun-27 @ 18:00 UTC

FM270800 33006KT P6SM SKC

From

From Standard forecast or significant change

Wind
  • 330° at 6 KTS
Cloud Levels
  • Clear skies